sensor_id;sensor_type;location;lat;lon;timestamp;P1;durP1;ratioP1;P2;durP2;ratioP2
40635;SDS011;26642;55.766;37.828;2023-02-02T00:01:24;14.18;;;8.70;;
40635;SDS011;26642;55.766;37.828;2023-02-02T00:03:51;11.80;;;7.95;;
40635;SDS011;26642;55.766;37.828;2023-02-02T00:06:18;12.95;;;7.95;;
40635;SDS011;26642;55.766;37.828;2023-02-02T00:08:45;11.38;;;7.72;;
40635;SDS011;26642;55.766;37.828;2023-02-02T00:11:12;14.65;;;8.65;;
40635;SDS011;26642;55.766;37.828;2023-02-02T00:13:38;14.75;;;7.90;;
40635;SDS011;26642;55.766;37.828;2023-02-02T00:18:55;11.77;;;8.20;;
40635;SDS011;26642;55.766;37.828;2023-02-02T00:21:23;12.98;;;8.20;;
40635;SDS011;26642;55.766;37.828;2023-02-02T00:23:49;14.30;;;8.38;;
40635;SDS011;26642;55.766;37.828;2023-02-02T00:26:15;12.63;;;8.35;;
40635;SDS011;26642;55.766;37.828;2023-02-02T00:28:42;12.25;;;7.95;;
40635;SDS011;26642;55.766;37.828;2023-02-02T00:31:08;13.07;;;8.68;;
40635;SDS011;26642;55.766;37.828;2023-02-02T00:33:34;13.60;;;8.73;;
40635;SDS011;26642;55.766;37.828;2023-02-02T00:36:00;13.73;;;8.65;;
40635;SDS011;26642;55.766;37.828;2023-02-02T00:38:26;12.05;;;8.43;;
40635;SDS011;26642;55.766;37.828;2023-02-02T00:40:52;13.80;;;8.38;;
40635;SDS011;26642;55.766;37.828;2023-02-02T00:43:18;13.50;;;8.68;;
40635;SDS011;26642;55.766;37.828;2023-02-02T00:45:45;11.80;;;7.38;;
40635;SDS011;26642;55.766;37.828;2023-02-02T00:48:11;15.07;;;8.95;;
40635;SDS011;26642;55.766;37.828;2023-02-02T00:50:37;13.00;;;8.50;;
40635;SDS011;26642;55.766;37.828;2023-02-02T00:53:03;13.20;;;8.15;;
40635;SDS011;26642;55.766;37.828;2023-02-02T00:55:29;13.68;;;8.18;;
40635;SDS011;26642;55.766;37.828;2023-02-02T00:57:56;13.07;;;8.60;;
40635;SDS011;26642;55.766;37.828;2023-02-02T01:00:23;12.68;;;7.82;;
40635;SDS011;26642;55.766;37.828;2023-02-02T01:02:50;16.08;;;8.70;;
40635;SDS011;26642;55.766;37.828;2023-02-02T01:05:18;13.73;;;9.07;;
40635;SDS011;26642;55.766;37.828;2023-02-02T01:07:45;13.88;;;8.38;;
40635;SDS011;26642;55.766;37.828;2023-02-02T01:10:15;11.77;;;7.72;;
40635;SDS011;26642;55.766;37.828;2023-02-02T01:12:42;13.60;;;8.60;;
40635;SDS011;26642;55.766;37.828;2023-02-02T01:15:09;12.73;;;8.40;;
40635;SDS011;26642;55.766;37.828;2023-02-02T01:17:36;14.57;;;8.98;;
40635;SDS011;26642;55.766;37.828;2023-02-02T01:20:03;13.55;;;8.10;;
40635;SDS011;26642;55.766;37.828;2023-02-02T01:22:30;13.93;;;8.30;;
40635;SDS011;26642;55.766;37.828;2023-02-02T01:24:58;11.75;;;8.00;;
40635;SDS011;26642;55.766;37.828;2023-02-02T01:27:24;12.75;;;8.15;;
40635;SDS011;26642;55.766;37.828;2023-02-02T01:29:51;13.93;;;8.60;;
40635;SDS011;26642;55.766;37.828;2023-02-02T01:32:17;12.60;;;7.82;;
40635;SDS011;26642;55.766;37.828;2023-02-02T01:34:44;14.45;;;8.63;;
40635;SDS011;26642;55.766;37.828;2023-02-02T01:37:10;14.30;;;8.77;;
40635;SDS011;26642;55.766;37.828;2023-02-02T01:39:36;14.15;;;8.13;;
40635;SDS011;26642;55.766;37.828;2023-02-02T01:42:02;11.73;;;8.05;;
40635;SDS011;26642;55.766;37.828;2023-02-02T01:47:54;12.50;;;7.93;;
40635;SDS011;26642;55.766;37.828;2023-02-02T01:50:25;13.88;;;8.82;;
40635;SDS011;26642;55.766;37.828;2023-02-02T01:52:55;14.45;;;8.63;;
40635;SDS011;26642;55.766;37.828;2023-02-02T01:55:25;14.70;;;9.00;;
40635;SDS011;26642;55.766;37.828;2023-02-02T01:57:55;14.27;;;8.35;;
40635;SDS011;26642;55.766;37.828;2023-02-02T02:00:24;12.60;;;8.27;;
40635;SDS011;26642;55.766;37.828;2023-02-02T02:02:57;12.32;;;7.60;;
40635;SDS011;26642;55.766;37.828;2023-02-02T02:05:27;15.23;;;8.98;;
40635;SDS011;26642;55.766;37.828;2023-02-02T02:08:01;13.73;;;8.63;;
40635;SDS011;26642;55.766;37.828;2023-02-02T02:10:40;13.52;;;8.48;;
40635;SDS011;26642;55.766;37.828;2023-02-02T02:13:06;15.48;;;9.65;;
40635;SDS011;26642;55.766;37.828;2023-02-02T02:15:34;14.57;;;8.38;;
40635;SDS011;26642;55.766;37.828;2023-02-02T02:18:27;14.23;;;8.80;;
40635;SDS011;26642;55.766;37.828;2023-02-02T02:35:32;14.93;;;9.32;;
40635;SDS011;26642;55.766;37.828;2023-02-02T02:38:01;12.98;;;8.23;;
40635;SDS011;26642;55.766;37.828;2023-02-02T02:43:07;14.02;;;8.73;;
40635;SDS011;26642;55.766;37.828;2023-02-02T02:45:47;13.20;;;8.43;;
40635;SDS011;26642;55.766;37.828;2023-02-02T02:48:15;15.45;;;8.80;;
40635;SDS011;26642;55.766;37.828;2023-02-02T02:50:41;14.35;;;8.40;;
40635;SDS011;26642;55.766;37.828;2023-02-02T02:53:08;15.20;;;8.57;;
40635;SDS011;26642;55.766;37.828;2023-02-02T02:55:41;16.17;;;9.60;;
40635;SDS011;26642;55.766;37.828;2023-02-02T03:01:24;17.90;;;9.02;;
40635;SDS011;26642;55.766;37.828;2023-02-02T03:04:17;15.95;;;9.07;;
40635;SDS011;26642;55.766;37.828;2023-02-02T03:06:51;14.50;;;9.20;;
40635;SDS011;26642;55.766;37.828;2023-02-02T03:09:24;15.00;;;8.70;;
40635;SDS011;26642;55.766;37.828;2023-02-02T03:11:59;17.95;;;9.00;;
40635;SDS011;26642;55.766;37.828;2023-02-02T03:14:25;15.30;;;8.50;;
40635;SDS011;26642;55.766;37.828;2023-02-02T03:16:51;14.48;;;8.90;;
40635;SDS011;26642;55.766;37.828;2023-02-02T03:19:18;16.25;;;8.65;;
40635;SDS011;26642;55.766;37.828;2023-02-02T03:21:44;15.98;;;8.68;;
40635;SDS011;26642;55.766;37.828;2023-02-02T03:24:10;14.63;;;8.95;;
40635;SDS011;26642;55.766;37.828;2023-02-02T03:26:36;14.23;;;9.13;;
40635;SDS011;26642;55.766;37.828;2023-02-02T03:29:02;15.38;;;9.32;;
40635;SDS011;26642;55.766;37.828;2023-02-02T03:31:28;17.08;;;9.05;;
40635;SDS011;26642;55.766;37.828;2023-02-02T03:33:55;14.88;;;9.20;;
40635;SDS011;26642;55.766;37.828;2023-02-02T03:36:21;16.33;;;9.30;;
40635;SDS011;26642;55.766;37.828;2023-02-02T03:38:47;15.73;;;9.35;;
40635;SDS011;26642;55.766;37.828;2023-02-02T03:41:13;18.23;;;10.73;;
40635;SDS011;26642;55.766;37.828;2023-02-02T03:43:39;15.68;;;9.38;;
40635;SDS011;26642;55.766;37.828;2023-02-02T03:46:05;17.33;;;9.85;;
40635;SDS011;26642;55.766;37.828;2023-02-02T03:48:33;16.52;;;9.68;;
40635;SDS011;26642;55.766;37.828;2023-02-02T03:51:07;18.23;;;10.20;;
40635;SDS011;26642;55.766;37.828;2023-02-02T03:53:36;16.58;;;9.65;;
40635;SDS011;26642;55.766;37.828;2023-02-02T03:56:02;15.82;;;9.48;;
40635;SDS011;26642;55.766;37.828;2023-02-02T03:58:28;16.42;;;9.60;;
40635;SDS011;26642;55.766;37.828;2023-02-02T04:00:58;16.92;;;10.05;;
40635;SDS011;26642;55.766;37.828;2023-02-02T04:03:28;16.00;;;9.27;;
40635;SDS011;26642;55.766;37.828;2023-02-02T04:05:54;17.48;;;9.98;;
40635;SDS011;26642;55.766;37.828;2023-02-02T04:08:20;15.05;;;9.02;;
40635;SDS011;26642;55.766;37.828;2023-02-02T04:10:46;18.10;;;10.35;;
40635;SDS011;26642;55.766;37.828;2023-02-02T04:13:12;15.45;;;9.27;;
40635;SDS011;26642;55.766;37.828;2023-02-02T04:15:38;17.40;;;9.80;;
40635;SDS011;26642;55.766;37.828;2023-02-02T04:18:05;15.55;;;9.48;;
40635;SDS011;26642;55.766;37.828;2023-02-02T04:20:31;14.80;;;9.25;;
40635;SDS011;26642;55.766;37.828;2023-02-02T04:22:56;15.32;;;9.68;;
40635;SDS011;26642;55.766;37.828;2023-02-02T04:25:22;14.77;;;9.02;;
40635;SDS011;26642;55.766;37.828;2023-02-02T04:27:48;16.00;;;9.38;;
40635;SDS011;26642;55.766;37.828;2023-02-02T04:30:14;21.27;;;10.25;;
40635;SDS011;26642;55.766;37.828;2023-02-02T04:32:41;12.95;;;8.55;;
40635;SDS011;26642;55.766;37.828;2023-02-02T04:35:07;15.18;;;8.88;;
40635;SDS011;26642;55.766;37.828;2023-02-02T04:37:33;15.63;;;9.55;;
40635;SDS011;26642;55.766;37.828;2023-02-02T04:39:59;16.92;;;9.60;;
40635;SDS011;26642;55.766;37.828;2023-02-02T04:42:25;15.88;;;10.25;;
40635;SDS011;26642;55.766;37.828;2023-02-02T04:44:51;16.23;;;10.18;;
40635;SDS011;26642;55.766;37.828;2023-02-02T04:47:17;20.42;;;10.38;;
40635;SDS011;26642;55.766;37.828;2023-02-02T04:49:43;19.13;;;10.27;;
40635;SDS011;26642;55.766;37.828;2023-02-02T04:52:09;17.73;;;11.02;;
40635;SDS011;26642;55.766;37.828;2023-02-02T04:54:35;17.40;;;10.35;;
40635;SDS011;26642;55.766;37.828;2023-02-02T04:57:01;21.35;;;11.45;;
40635;SDS011;26642;55.766;37.828;2023-02-02T04:59:28;19.45;;;11.13;;
40635;SDS011;26642;55.766;37.828;2023-02-02T05:01:55;18.17;;;11.32;;
40635;SDS011;26642;55.766;37.828;2023-02-02T05:04:24;19.27;;;11.57;;
40635;SDS011;26642;55.766;37.828;2023-02-02T05:06:51;19.65;;;11.57;;
40635;SDS011;26642;55.766;37.828;2023-02-02T05:09:16;17.48;;;10.70;;
40635;SDS011;26642;55.766;37.828;2023-02-02T05:11:42;19.13;;;11.30;;
40635;SDS011;26642;55.766;37.828;2023-02-02T05:14:09;16.63;;;10.48;;
40635;SDS011;26642;55.766;37.828;2023-02-02T05:16:35;18.65;;;11.18;;
40635;SDS011;26642;55.766;37.828;2023-02-02T05:19:01;20.42;;;10.50;;
40635;SDS011;26642;55.766;37.828;2023-02-02T05:21:27;18.38;;;10.80;;
40635;SDS011;26642;55.766;37.828;2023-02-02T05:23:53;17.58;;;9.68;;
40635;SDS011;26642;55.766;37.828;2023-02-02T05:26:20;17.17;;;9.93;;
40635;SDS011;26642;55.766;37.828;2023-02-02T05:28:48;16.10;;;9.50;;
40635;SDS011;26642;55.766;37.828;2023-02-02T05:31:14;16.60;;;10.10;;
40635;SDS011;26642;55.766;37.828;2023-02-02T05:33:40;15.05;;;9.50;;
40635;SDS011;26642;55.766;37.828;2023-02-02T05:36:06;16.35;;;9.13;;
40635;SDS011;26642;55.766;37.828;2023-02-02T05:38:33;16.85;;;9.93;;
40635;SDS011;26642;55.766;37.828;2023-02-02T05:40:59;16.95;;;10.27;;
40635;SDS011;26642;55.766;37.828;2023-02-02T05:43:26;15.63;;;9.55;;
40635;SDS011;26642;55.766;37.828;2023-02-02T05:45:53;13.93;;;8.88;;
40635;SDS011;26642;55.766;37.828;2023-02-02T05:48:19;18.33;;;8.85;;
40635;SDS011;26642;55.766;37.828;2023-02-02T05:53:43;17.63;;;11.40;;
40635;SDS011;26642;55.766;37.828;2023-02-02T05:56:10;20.58;;;12.00;;
40635;SDS011;26642;55.766;37.828;2023-02-02T05:58:36;22.70;;;13.50;;
40635;SDS011;26642;55.766;37.828;2023-02-02T06:01:02;21.25;;;12.23;;
40635;SDS011;26642;55.766;37.828;2023-02-02T06:03:28;21.02;;;13.43;;
40635;SDS011;26642;55.766;37.828;2023-02-02T06:05:54;20.75;;;12.75;;
40635;SDS011;26642;55.766;37.828;2023-02-02T06:08:20;21.65;;;12.60;;
40635;SDS011;26642;55.766;37.828;2023-02-02T06:10:46;19.73;;;12.25;;
40635;SDS011;26642;55.766;37.828;2023-02-02T06:13:12;18.60;;;11.75;;
40635;SDS011;26642;55.766;37.828;2023-02-02T06:15:38;20.70;;;12.15;;
40635;SDS011;26642;55.766;37.828;2023-02-02T06:18:06;20.35;;;12.70;;
40635;SDS011;26642;55.766;37.828;2023-02-02T06:20:32;20.90;;;12.55;;
40635;SDS011;26642;55.766;37.828;2023-02-02T06:22:58;24.33;;;13.75;;
40635;SDS011;26642;55.766;37.828;2023-02-02T06:25:25;21.38;;;12.32;;
40635;SDS011;26642;55.766;37.828;2023-02-02T06:27:57;20.83;;;13.43;;
40635;SDS011;26642;55.766;37.828;2023-02-02T06:30:24;23.75;;;13.40;;
40635;SDS011;26642;55.766;37.828;2023-02-02T06:32:51;21.55;;;12.77;;
40635;SDS011;26642;55.766;37.828;2023-02-02T06:35:17;21.75;;;12.95;;
40635;SDS011;26642;55.766;37.828;2023-02-02T06:37:44;22.15;;;12.98;;
40635;SDS011;26642;55.766;37.828;2023-02-02T06:40:10;21.42;;;12.90;;
40635;SDS011;26642;55.766;37.828;2023-02-02T06:42:38;21.33;;;12.45;;
40635;SDS011;26642;55.766;37.828;2023-02-02T06:45:04;21.35;;;12.65;;
40635;SDS011;26642;55.766;37.828;2023-02-02T06:47:32;21.00;;;12.90;;
40635;SDS011;26642;55.766;37.828;2023-02-02T06:49:58;21.65;;;13.05;;
40635;SDS011;26642;55.766;37.828;2023-02-02T06:52:24;20.10;;;12.75;;
40635;SDS011;26642;55.766;37.828;2023-02-02T06:54:50;22.17;;;12.82;;
40635;SDS011;26642;55.766;37.828;2023-02-02T06:57:16;23.08;;;13.43;;
40635;SDS011;26642;55.766;37.828;2023-02-02T06:59:41;21.65;;;13.27;;
40635;SDS011;26642;55.766;37.828;2023-02-02T07:02:11;20.25;;;11.77;;
40635;SDS011;26642;55.766;37.828;2023-02-02T07:04:37;23.85;;;12.60;;
40635;SDS011;26642;55.766;37.828;2023-02-02T07:07:04;22.00;;;13.15;;
40635;SDS011;26642;55.766;37.828;2023-02-02T07:09:33;25.48;;;13.48;;
40635;SDS011;26642;55.766;37.828;2023-02-02T07:12:00;21.38;;;12.90;;
40635;SDS011;26642;55.766;37.828;2023-02-02T07:14:26;23.45;;;12.43;;
40635;SDS011;26642;55.766;37.828;2023-02-02T07:16:52;23.27;;;13.02;;
40635;SDS011;26642;55.766;37.828;2023-02-02T07:19:18;21.90;;;12.35;;
40635;SDS011;26642;55.766;37.828;2023-02-02T07:21:44;22.38;;;13.32;;
40635;SDS011;26642;55.766;37.828;2023-02-02T07:24:10;23.85;;;13.57;;
40635;SDS011;26642;55.766;37.828;2023-02-02T07:26:36;24.23;;;12.77;;
40635;SDS011;26642;55.766;37.828;2023-02-02T07:29:03;25.05;;;14.23;;
40635;SDS011;26642;55.766;37.828;2023-02-02T07:31:29;23.00;;;12.75;;
40635;SDS011;26642;55.766;37.828;2023-02-02T07:33:55;24.65;;;13.40;;
40635;SDS011;26642;55.766;37.828;2023-02-02T07:36:22;20.77;;;12.60;;
40635;SDS011;26642;55.766;37.828;2023-02-02T07:38:49;20.35;;;12.50;;
40635;SDS011;26642;55.766;37.828;2023-02-02T07:41:21;22.95;;;13.65;;
40635;SDS011;26642;55.766;37.828;2023-02-02T07:43:48;23.13;;;12.93;;
40635;SDS011;26642;55.766;37.828;2023-02-02T07:46:15;25.88;;;13.50;;
40635;SDS011;26642;55.766;37.828;2023-02-02T07:48:42;22.20;;;13.50;;
40635;SDS011;26642;55.766;37.828;2023-02-02T07:51:10;21.08;;;12.15;;
40635;SDS011;26642;55.766;37.828;2023-02-02T07:53:37;21.70;;;11.02;;
40635;SDS011;26642;55.766;37.828;2023-02-02T07:56:10;16.77;;;9.93;;
40635;SDS011;26642;55.766;37.828;2023-02-02T07:58:38;17.40;;;10.13;;
40635;SDS011;26642;55.766;37.828;2023-02-02T08:01:06;16.77;;;10.63;;
40635;SDS011;26642;55.766;37.828;2023-02-02T08:03:33;25.42;;;10.05;;
40635;SDS011;26642;55.766;37.828;2023-02-02T08:06:06;17.52;;;9.20;;
40635;SDS011;26642;55.766;37.828;2023-02-02T08:08:41;14.93;;;8.95;;
40635;SDS011;26642;55.766;37.828;2023-02-02T08:11:08;15.70;;;8.88;;
40635;SDS011;26642;55.766;37.828;2023-02-02T08:13:36;15.32;;;9.45;;
40635;SDS011;26642;55.766;37.828;2023-02-02T08:16:02;16.83;;;9.65;;
40635;SDS011;26642;55.766;37.828;2023-02-02T08:18:29;13.52;;;8.70;;
40635;SDS011;26642;55.766;37.828;2023-02-02T08:20:58;13.45;;;8.20;;
40635;SDS011;26642;55.766;37.828;2023-02-02T08:23:25;12.43;;;7.97;;
40635;SDS011;26642;55.766;37.828;2023-02-02T08:25:52;13.10;;;8.55;;
40635;SDS011;26642;55.766;37.828;2023-02-02T08:28:19;15.23;;;9.30;;
40635;SDS011;26642;55.766;37.828;2023-02-02T08:30:45;14.25;;;9.00;;
40635;SDS011;26642;55.766;37.828;2023-02-02T08:33:11;14.85;;;8.65;;
40635;SDS011;26642;55.766;37.828;2023-02-02T08:35:41;14.50;;;8.90;;
40635;SDS011;26642;55.766;37.828;2023-02-02T08:38:07;14.43;;;8.23;;
40635;SDS011;26642;55.766;37.828;2023-02-02T08:40:34;15.27;;;8.43;;
40635;SDS011;26642;55.766;37.828;2023-02-02T08:43:00;14.77;;;8.25;;
40635;SDS011;26642;55.766;37.828;2023-02-02T08:45:25;14.38;;;8.68;;
40635;SDS011;26642;55.766;37.828;2023-02-02T08:47:52;13.02;;;7.65;;
40635;SDS011;26642;55.766;37.828;2023-02-02T08:50:18;13.57;;;8.85;;
40635;SDS011;26642;55.766;37.828;2023-02-02T08:52:44;12.70;;;8.13;;
40635;SDS011;26642;55.766;37.828;2023-02-02T08:55:10;12.82;;;7.70;;
40635;SDS011;26642;55.766;37.828;2023-02-02T08:57:36;15.52;;;8.40;;
40635;SDS011;26642;55.766;37.828;2023-02-02T09:00:03;12.77;;;7.30;;
40635;SDS011;26642;55.766;37.828;2023-02-02T09:02:30;13.57;;;8.00;;
40635;SDS011;26642;55.766;37.828;2023-02-02T09:04:57;12.85;;;8.02;;
40635;SDS011;26642;55.766;37.828;2023-02-02T09:07:23;13.38;;;8.52;;
40635;SDS011;26642;55.766;37.828;2023-02-02T09:09:49;11.45;;;7.55;;
40635;SDS011;26642;55.766;37.828;2023-02-02T09:12:16;13.18;;;8.07;;
40635;SDS011;26642;55.766;37.828;2023-02-02T09:14:42;13.95;;;8.15;;
40635;SDS011;26642;55.766;37.828;2023-02-02T09:17:08;11.57;;;7.55;;
40635;SDS011;26642;55.766;37.828;2023-02-02T09:19:34;15.13;;;8.85;;
40635;SDS011;26642;55.766;37.828;2023-02-02T09:22:00;12.73;;;8.27;;
40635;SDS011;26642;55.766;37.828;2023-02-02T09:24:26;11.50;;;7.20;;
40635;SDS011;26642;55.766;37.828;2023-02-02T09:26:52;12.50;;;8.05;;
40635;SDS011;26642;55.766;37.828;2023-02-02T09:29:19;13.48;;;8.13;;
40635;SDS011;26642;55.766;37.828;2023-02-02T09:31:45;13.23;;;7.95;;
40635;SDS011;26642;55.766;37.828;2023-02-02T09:34:12;13.05;;;7.70;;
40635;SDS011;26642;55.766;37.828;2023-02-02T09:36:40;10.80;;;6.97;;
40635;SDS011;26642;55.766;37.828;2023-02-02T09:39:07;13.25;;;8.00;;
40635;SDS011;26642;55.766;37.828;2023-02-02T09:52:38;12.10;;;7.50;;
40635;SDS011;26642;55.766;37.828;2023-02-02T09:57:43;12.20;;;7.18;;
40635;SDS011;26642;55.766;37.828;2023-02-02T10:00:35;12.55;;;7.75;;
40635;SDS011;26642;55.766;37.828;2023-02-02T10:03:13;12.63;;;8.52;;
40635;SDS011;26642;55.766;37.828;2023-02-02T10:05:56;13.00;;;8.20;;
40635;SDS011;26642;55.766;37.828;2023-02-02T10:08:45;11.70;;;7.50;;
40635;SDS011;26642;55.766;37.828;2023-02-02T10:14:28;11.25;;;7.45;;
40635;SDS011;26642;55.766;37.828;2023-02-02T10:16:56;13.32;;;8.23;;
40635;SDS011;26642;55.766;37.828;2023-02-02T10:19:30;11.38;;;7.57;;
40635;SDS011;26642;55.766;37.828;2023-02-02T10:24:42;12.45;;;7.90;;
40635;SDS011;26642;55.766;37.828;2023-02-02T10:27:22;11.43;;;7.47;;
40635;SDS011;26642;55.766;37.828;2023-02-02T10:30:02;13.32;;;8.40;;
40635;SDS011;26642;55.766;37.828;2023-02-02T10:35:39;11.30;;;7.60;;
40635;SDS011;26642;55.766;37.828;2023-02-02T10:46:42;11.25;;;7.82;;
40635;SDS011;26642;55.766;37.828;2023-02-02T10:51:55;9.27;;;6.50;;
40635;SDS011;26642;55.766;37.828;2023-02-02T10:54:31;9.77;;;6.90;;
40635;SDS011;26642;55.766;37.828;2023-02-02T10:57:07;11.45;;;7.05;;
40635;SDS011;26642;55.766;37.828;2023-02-02T10:59:41;9.45;;;6.50;;
40635;SDS011;26642;55.766;37.828;2023-02-02T11:02:14;12.43;;;7.43;;
40635;SDS011;26642;55.766;37.828;2023-02-02T11:04:40;10.40;;;6.90;;
40635;SDS011;26642;55.766;37.828;2023-02-02T11:07:24;9.43;;;6.85;;
40635;SDS011;26642;55.766;37.828;2023-02-02T11:09:50;9.30;;;6.03;;
40635;SDS011;26642;55.766;37.828;2023-02-02T11:12:40;9.57;;;6.80;;
40635;SDS011;26642;55.766;37.828;2023-02-02T11:15:22;10.32;;;7.32;;
40635;SDS011;26642;55.766;37.828;2023-02-02T11:17:52;10.80;;;7.35;;
40635;SDS011;26642;55.766;37.828;2023-02-02T11:20:36;12.80;;;6.85;;
40635;SDS011;26642;55.766;37.828;2023-02-02T11:23:03;10.00;;;6.50;;
40635;SDS011;26642;55.766;37.828;2023-02-02T11:25:32;8.70;;;5.80;;
40635;SDS011;26642;55.766;37.828;2023-02-02T11:28:08;10.88;;;6.57;;
40635;SDS011;26642;55.766;37.828;2023-02-02T11:30:47;9.43;;;6.68;;
40635;SDS011;26642;55.766;37.828;2023-02-02T11:36:02;9.45;;;6.85;;
40635;SDS011;26642;55.766;37.828;2023-02-02T11:38:30;9.57;;;6.93;;
40635;SDS011;26642;55.766;37.828;2023-02-02T11:41:04;10.05;;;6.78;;
40635;SDS011;26642;55.766;37.828;2023-02-02T11:46:29;9.60;;;6.57;;
40635;SDS011;26642;55.766;37.828;2023-02-02T11:49:05;9.88;;;6.88;;
40635;SDS011;26642;55.766;37.828;2023-02-02T11:51:43;9.82;;;6.88;;
40635;SDS011;26642;55.766;37.828;2023-02-02T11:54:26;10.23;;;6.85;;
40635;SDS011;26642;55.766;37.828;2023-02-02T11:56:54;10.65;;;7.28;;
40635;SDS011;26642;55.766;37.828;2023-02-02T11:59:27;10.38;;;7.05;;
40635;SDS011;26642;55.766;37.828;2023-02-02T12:04:38;12.73;;;7.25;;
40635;SDS011;26642;55.766;37.828;2023-02-02T12:07:21;11.68;;;7.45;;
40635;SDS011;26642;55.766;37.828;2023-02-02T12:10:00;10.02;;;6.57;;
40635;SDS011;26642;55.766;37.828;2023-02-02T12:17:39;11.02;;;6.85;;
40635;SDS011;26642;55.766;37.828;2023-02-02T12:20:25;11.27;;;7.05;;
40635;SDS011;26642;55.766;37.828;2023-02-02T12:28:48;11.50;;;7.05;;
40635;SDS011;26642;55.766;37.828;2023-02-02T12:32:01;12.32;;;7.53;;
40635;SDS011;26642;55.766;37.828;2023-02-02T13:14:26;14.52;;;8.15;;
40635;SDS011;26642;55.766;37.828;2023-02-02T13:17:11;13.02;;;8.05;;
40635;SDS011;26642;55.766;37.828;2023-02-02T13:19:59;13.07;;;8.32;;
40635;SDS011;26642;55.766;37.828;2023-02-02T13:22:36;13.27;;;8.27;;
40635;SDS011;26642;55.766;37.828;2023-02-02T13:25:08;12.70;;;7.75;;
40635;SDS011;26642;55.766;37.828;2023-02-02T13:27:43;13.60;;;8.38;;
40635;SDS011;26642;55.766;37.828;2023-02-02T13:32:56;13.43;;;8.32;;
40635;SDS011;26642;55.766;37.828;2023-02-02T13:35:36;14.00;;;8.48;;
40635;SDS011;26642;55.766;37.828;2023-02-02T13:38:15;14.70;;;8.77;;
40635;SDS011;26642;55.766;37.828;2023-02-02T13:40:46;13.23;;;8.07;;
40635;SDS011;26642;55.766;37.828;2023-02-02T13:43:19;17.00;;;8.70;;
40635;SDS011;26642;55.766;37.828;2023-02-02T13:45:54;12.98;;;8.57;;
40635;SDS011;26642;55.766;37.828;2023-02-02T14:02:10;10.82;;;6.90;;
40635;SDS011;26642;55.766;37.828;2023-02-02T14:04:51;7.82;;;5.20;;
40635;SDS011;26642;55.766;37.828;2023-02-02T14:09:59;10.60;;;5.93;;
40635;SDS011;26642;55.766;37.828;2023-02-02T14:12:29;12.02;;;7.40;;
40635;SDS011;26642;55.766;37.828;2023-02-02T14:14:57;9.95;;;5.53;;
40635;SDS011;26642;55.766;37.828;2023-02-02T14:19:53;8.63;;;5.47;;
40635;SDS011;26642;55.766;37.828;2023-02-02T14:22:40;11.02;;;6.00;;
40635;SDS011;26642;55.766;37.828;2023-02-02T14:27:59;12.73;;;8.00;;
40635;SDS011;26642;55.766;37.828;2023-02-02T14:30:28;12.35;;;7.43;;
40635;SDS011;26642;55.766;37.828;2023-02-02T14:38:16;12.85;;;8.02;;
40635;SDS011;26642;55.766;37.828;2023-02-02T14:43:35;14.15;;;7.68;;
40635;SDS011;26642;55.766;37.828;2023-02-02T14:48:40;13.23;;;8.48;;
40635;SDS011;26642;55.766;37.828;2023-02-02T14:51:30;13.75;;;8.38;;
40635;SDS011;26642;55.766;37.828;2023-02-02T14:54:02;13.90;;;8.43;;
40635;SDS011;26642;55.766;37.828;2023-02-02T14:57:04;13.48;;;7.95;;
40635;SDS011;26642;55.766;37.828;2023-02-02T14:59:41;13.25;;;7.93;;
40635;SDS011;26642;55.766;37.828;2023-02-02T15:07:51;12.63;;;7.43;;
40635;SDS011;26642;55.766;37.828;2023-02-02T15:10:55;15.95;;;8.57;;
40635;SDS011;26642;55.766;37.828;2023-02-02T15:13:10;14.90;;;8.30;;
40635;SDS011;26642;55.766;37.828;2023-02-02T15:15:41;12.25;;;7.65;;
40635;SDS011;26642;55.766;37.828;2023-02-02T15:18:12;11.73;;;7.63;;
40635;SDS011;26642;55.766;37.828;2023-02-02T15:20:47;13.48;;;8.07;;
40635;SDS011;26642;55.766;37.828;2023-02-02T15:23:19;14.75;;;7.93;;
40635;SDS011;26642;55.766;37.828;2023-02-02T15:28:48;13.67;;;7.83;;
40635;SDS011;26642;55.766;37.828;2023-02-02T15:34:14;13.88;;;8.45;;
40635;SDS011;26642;55.766;37.828;2023-02-02T15:36:59;14.70;;;8.77;;
40635;SDS011;26642;55.766;37.828;2023-02-02T15:39:37;16.15;;;9.18;;
40635;SDS011;26642;55.766;37.828;2023-02-02T15:42:30;15.30;;;8.75;;
40635;SDS011;26642;55.766;37.828;2023-02-02T15:45:29;13.90;;;8.50;;
40635;SDS011;26642;55.766;37.828;2023-02-02T15:50:51;13.95;;;8.13;;
40635;SDS011;26642;55.766;37.828;2023-02-02T15:53:22;12.40;;;7.72;;
40635;SDS011;26642;55.766;37.828;2023-02-02T15:55:51;12.38;;;8.23;;
40635;SDS011;26642;55.766;37.828;2023-02-02T15:58:28;13.40;;;8.48;;
40635;SDS011;26642;55.766;37.828;2023-02-02T16:00:57;12.25;;;7.95;;
40635;SDS011;26642;55.766;37.828;2023-02-02T16:06:19;13.60;;;8.50;;
40635;SDS011;26642;55.766;37.828;2023-02-02T16:08:46;12.98;;;8.70;;
40635;SDS011;26642;55.766;37.828;2023-02-02T16:11:14;13.55;;;8.25;;
40635;SDS011;26642;55.766;37.828;2023-02-02T16:14:07;14.40;;;8.80;;
40635;SDS011;26642;55.766;37.828;2023-02-02T16:16:37;16.45;;;8.73;;
40635;SDS011;26642;55.766;37.828;2023-02-02T16:21:33;12.50;;;8.38;;
40635;SDS011;26642;55.766;37.828;2023-02-02T16:24:06;12.70;;;8.18;;
40635;SDS011;26642;55.766;37.828;2023-02-02T16:26:38;13.63;;;8.52;;
40635;SDS011;26642;55.766;37.828;2023-02-02T16:29:04;12.93;;;8.02;;
40635;SDS011;26642;55.766;37.828;2023-02-02T16:31:30;12.63;;;8.30;;
40635;SDS011;26642;55.766;37.828;2023-02-02T16:33:56;11.98;;;7.43;;
40635;SDS011;26642;55.766;37.828;2023-02-02T16:36:25;12.82;;;8.32;;
40635;SDS011;26642;55.766;37.828;2023-02-02T16:38:54;13.45;;;8.32;;
40635;SDS011;26642;55.766;37.828;2023-02-02T16:41:26;15.23;;;9.20;;
40635;SDS011;26642;55.766;37.828;2023-02-02T16:44:26;13.23;;;8.48;;
40635;SDS011;26642;55.766;37.828;2023-02-02T16:46:57;13.90;;;8.05;;
40635;SDS011;26642;55.766;37.828;2023-02-02T16:49:25;13.85;;;9.35;;
40635;SDS011;26642;55.766;37.828;2023-02-02T16:52:08;16.63;;;9.88;;
40635;SDS011;26642;55.766;37.828;2023-02-02T16:54:40;12.20;;;8.10;;
40635;SDS011;26642;55.766;37.828;2023-02-02T16:57:17;13.73;;;8.35;;
40635;SDS011;26642;55.766;37.828;2023-02-02T16:59:50;14.05;;;8.85;;
40635;SDS011;26642;55.766;37.828;2023-02-02T17:02:31;13.32;;;8.73;;
40635;SDS011;26642;55.766;37.828;2023-02-02T17:07:30;12.25;;;8.52;;
40635;SDS011;26642;55.766;37.828;2023-02-02T17:10:59;12.48;;;8.55;;
40635;SDS011;26642;55.766;37.828;2023-02-02T17:12:59;12.80;;;8.38;;
40635;SDS011;26642;55.766;37.828;2023-02-02T17:15:27;13.52;;;8.65;;
40635;SDS011;26642;55.766;37.828;2023-02-02T17:17:58;13.40;;;9.07;;
40635;SDS011;26642;55.766;37.828;2023-02-02T17:20:25;15.13;;;8.73;;
40635;SDS011;26642;55.766;37.828;2023-02-02T17:22:53;15.15;;;9.23;;
40635;SDS011;26642;55.766;37.828;2023-02-02T17:25:25;15.35;;;9.05;;
40635;SDS011;26642;55.766;37.828;2023-02-02T17:28:16;14.70;;;9.18;;
40635;SDS011;26642;55.766;37.828;2023-02-02T17:30:45;11.82;;;8.05;;
40635;SDS011;26642;55.766;37.828;2023-02-02T17:33:15;13.85;;;8.68;;
40635;SDS011;26642;55.766;37.828;2023-02-02T17:35:42;12.23;;;8.15;;